Time;durP1;ratioP1;P1;durP2;ratioP2;P2;SDS_P1;SDS_P2;PMS_P1;PMS_P2;Temp;Humidity;BMP_temperature;BMP_pressure;BME280_temperature;BME280_humidity;BME280_pressure;Samples;Min_cycle;Max_cycle;Signal;HPM_P1;HPM_P2
2022/09/11 00:01:39;;;;;;;1.90;1.70;;;20.90;60.30;;;;;;4950315;28;20455;-69
2022/09/11 00:04:08;;;;;;;2.17;2.07;;;20.90;60.30;;;;;;4931986;29;20488;-69
2022/09/11 00:06:36;;;;;;;2.10;1.87;;;20.80;60.10;;;;;;4937788;29;20432;-69
2022/09/11 00:09:06;;;;;;;2.47;2.27;;;20.90;60.90;;;;;;4933815;29;20515;-69
2022/09/11 00:11:40;;;;;;;4.03;2.37;;;20.90;60.10;;;;;;4942036;28;20999;-69
2022/09/11 00:14:12;;;;;;;3.10;2.10;;;20.90;60.10;;;;;;4924916;29;20562;-69
2022/09/11 00:16:43;;;;;;;1.60;1.50;;;20.80;60.20;;;;;;4950146;29;20440;-69
2022/09/11 00:19:15;;;;;;;2.40;2.20;;;20.80;60.00;;;;;;4941533;29;20483;-69
2022/09/11 00:21:44;;;;;;;2.87;2.67;;;20.80;60.30;;;;;;4934488;29;20527;-69
2022/09/11 00:24:13;;;;;;;2.40;1.90;;;20.80;60.00;;;;;;4908074;29;20845;-69
2022/09/11 00:26:41;;;;;;;3.33;3.03;;;20.80;60.10;;;;;;4937873;29;20522;-68
2022/09/11 00:29:11;;;;;;;3.07;2.30;;;20.80;60.40;;;;;;4926178;29;20551;-69
2022/09/11 00:31:40;;;;;;;2.27;2.10;;;20.80;60.20;;;;;;4949591;29;20464;-68
2022/09/11 00:34:09;;;;;;;3.17;2.37;;;20.80;60.10;;;;;;4931989;29;22398;-69
2022/09/11 00:36:40;;;;;;;3.37;2.83;;;20.80;60.20;;;;;;4927786;29;20440;-69
2022/09/11 00:39:11;;;;;;;2.40;2.10;;;20.80;60.30;;;;;;4939395;29;21046;-69
2022/09/11 00:41:43;;;;;;;2.33;2.13;;;20.80;60.10;;;;;;4947481;29;20446;-69
2022/09/11 00:44:45;;;;;;;4.00;2.40;;;20.80;60.20;;;;;;4933333;29;20471;-68
2022/09/11 00:47:17;;;;;;;3.67;2.80;;;20.80;60.10;;;;;;4949403;29;20442;-69
2022/09/11 00:49:50;;;;;;;2.90;2.70;;;20.80;60.10;;;;;;4919585;29;20523;-69
2022/09/11 00:52:23;;;;;;;2.57;2.37;;;20.80;60.40;;;;;;4942281;29;21035;-69
2022/09/11 00:54:56;;;;;;;4.03;3.73;;;20.80;60.30;;;;;;4948956;29;20811;-69
2022/09/11 00:57:28;;;;;;;3.07;2.83;;;20.80;60.60;;;;;;4942170;29;20999;-69
2022/09/11 01:00:00;;;;;;;3.50;3.20;;;20.80;60.50;;;;;;4935512;29;20493;-68
2022/09/11 01:02:33;;;;;;;2.93;2.73;;;20.80;60.50;;;;;;4939787;29;20980;-69
2022/09/11 01:05:03;;;;;;;2.90;2.70;;;20.80;60.30;;;;;;4942912;29;20456;-69
2022/09/11 01:07:33;;;;;;;3.70;3.40;;;20.80;60.40;;;;;;4950943;29;20486;-69
2022/09/11 01:10:02;;;;;;;4.60;4.03;;;20.80;60.60;;;;;;4947858;29;20503;-69
2022/09/11 01:12:38;;;;;;;3.80;3.00;;;20.80;60.40;;;;;;4933818;28;20518;-69
2022/09/11 01:15:13;;;;;;;4.47;3.90;;;20.80;60.40;;;;;;4940836;29;21023;-69
2022/09/11 01:17:52;;;;;;;3.10;2.90;;;20.80;60.50;;;;;;4933039;29;20513;-69
2022/09/11 01:20:29;;;;;;;6.03;5.43;;;20.80;60.30;;;;;;4946769;29;20451;-69
2022/09/11 01:23:14;;;;;;;4.87;4.47;;;20.70;60.50;;;;;;4928592;29;20479;-69
2022/09/11 01:26:09;;;;;;;6.63;4.10;;;20.70;60.50;;;;;;4941141;29;20567;-69
2022/09/11 01:28:45;;;;;;;3.70;3.40;;;20.70;60.50;;;;;;4945813;28;20882;-69
2022/09/11 01:31:18;;;;;;;3.83;3.07;;;20.70;60.50;;;;;;4931158;29;20487;-69
2022/09/11 01:33:53;;;;;;;5.03;4.53;;;20.70;60.30;;;;;;4946174;28;20994;-69
2022/09/11 01:36:24;;;;;;;3.20;2.93;;;20.70;60.40;;;;;;4938435;29;20447;-69
2022/09/11 01:38:56;;;;;;;3.60;3.30;;;20.70;60.30;;;;;;4935088;29;20507;-69
2022/09/11 01:41:28;;;;;;;6.50;4.57;;;20.70;60.30;;;;;;4937673;29;21001;-69
2022/09/11 01:44:05;;;;;;;4.10;3.80;;;20.70;60.50;;;;;;4929196;29;20906;-69
2022/09/11 01:46:40;;;;;;;3.87;3.57;;;20.70;61.70;;;;;;4933895;29;20485;-69
2022/09/11 01:49:14;;;;;;;4.00;3.70;;;20.70;60.30;;;;;;4915684;29;20888;-69
2022/09/11 01:51:42;;;;;;;4.03;3.67;;;20.70;60.50;;;;;;4917523;29;20467;-69
2022/09/11 01:54:15;;;;;;;3.67;3.37;;;20.70;60.30;;;;;;4924411;29;20586;-69
2022/09/11 01:56:47;;;;;;;4.43;4.10;;;20.70;60.30;;;;;;4946107;29;21034;-69
2022/09/11 01:59:26;;;;;;;6.00;5.13;;;20.70;60.30;;;;;;4916020;29;21002;-69
2022/09/11 02:02:01;;;;;;;4.73;4.33;;;20.70;60.50;;;;;;4927252;29;20963;-69
2022/09/11 02:04:33;;;;;;;4.00;3.67;;;20.70;60.40;;;;;;4945325;28;20994;-69
2022/09/11 02:07:07;;;;;;;7.30;6.53;;;20.70;60.20;;;;;;4931925;29;20836;-68
2022/09/11 02:09:41;;;;;;;3.77;3.47;;;20.70;60.70;;;;;;4935145;28;20486;-68
2022/09/11 02:12:13;;;;;;;4.10;3.53;;;20.70;60.50;;;;;;4941883;29;20815;-69
2022/09/11 02:14:45;;;;;;;3.03;2.83;;;20.70;60.50;;;;;;4932461;29;20616;-69
2022/09/11 02:17:23;;;;;;;5.40;4.50;;;20.70;60.30;;;;;;4965132;28;20444;-69
2022/09/11 02:19:53;;;;;;;5.50;5.00;;;20.70;60.40;;;;;;4950968;28;20490;-69
2022/09/11 02:22:23;;;;;;;7.67;6.40;;;20.70;60.50;;;;;;4935606;29;20427;-69
2022/09/11 02:24:52;;;;;;;7.23;4.37;;;20.70;60.80;;;;;;4923585;29;20975;-69
2022/09/11 02:27:24;;;;;;;5.00;4.60;;;20.70;60.50;;;;;;4941680;29;20487;-69
2022/09/11 02:29:54;;;;;;;4.80;4.40;;;20.70;60.50;;;;;;4929895;29;20468;-69
2022/09/11 02:32:24;;;;;;;4.83;4.43;;;20.60;60.40;;;;;;4928869;29;20872;-69
2022/09/11 02:34:54;;;;;;;4.70;4.37;;;20.70;60.50;;;;;;4947959;28;20479;-69
2022/09/11 02:37:33;;;;;;;4.70;4.30;;;20.60;60.40;;;;;;4933740;29;20453;-69
2022/09/11 02:40:15;;;;;;;4.30;4.00;;;20.70;60.40;;;;;;4935905;29;20510;-69
2022/09/11 02:43:00;;;;;;;6.90;5.17;;;20.60;60.50;;;;;;4936867;29;20470;-69
2022/09/11 02:45:44;;;;;;;7.10;6.47;;;20.70;60.50;;;;;;4942011;29;20518;-69
2022/09/11 02:48:38;;;;;;;5.83;4.93;;;20.60;60.50;;;;;;4930436;29;21057;-69
2022/09/11 02:51:18;;;;;;;6.80;6.20;;;20.60;60.50;;;;;;4940618;29;20504;-69
2022/09/11 02:53:56;;;;;;;5.63;5.10;;;20.60;60.60;;;;;;4944092;28;20479;-69
2022/09/11 02:56:35;;;;;;;8.43;6.00;;;20.60;60.50;;;;;;4925162;28;20450;-69
2022/09/11 02:59:09;;;;;;;6.20;5.60;;;20.60;61.00;;;;;;4937898;29;20894;-69
2022/09/11 03:01:53;;;;;;;8.10;7.50;;;20.60;60.90;;;;;;4942121;29;20467;-69
2022/09/11 03:04:25;;;;;;;6.53;5.63;;;20.60;61.10;;;;;;4928298;29;21058;-69
2022/09/11 03:06:57;;;;;;;6.17;5.57;;;20.60;61.00;;;;;;4937985;29;20483;-69
2022/09/11 03:09:26;;;;;;;6.00;5.30;;;20.60;61.00;;;;;;4935462;29;20475;-69
2022/09/11 03:12:00;;;;;;;4.97;4.50;;;20.60;61.00;;;;;;4931766;29;20475;-69
2022/09/11 03:14:28;;;;;;;6.00;5.40;;;20.60;60.80;;;;;;4943647;29;20491;-69
2022/09/11 03:16:58;;;;;;;9.63;8.07;;;20.60;60.90;;;;;;4941260;29;20469;-68
2022/09/11 03:19:26;;;;;;;8.23;7.40;;;20.60;61.20;;;;;;4929952;29;20507;-68
2022/09/11 03:21:55;;;;;;;10.63;9.73;;;20.60;61.10;;;;;;4930241;29;20436;-69
2022/09/11 03:24:25;;;;;;;6.67;6.07;;;20.60;61.50;;;;;;4931416;29;20483;-69
2022/09/11 03:26:53;;;;;;;7.20;6.50;;;20.60;61.40;;;;;;4944469;29;20443;-68
2022/09/11 03:29:22;;;;;;;7.80;7.10;;;20.50;61.10;;;;;;4934463;29;20564;-69
2022/09/11 03:31:50;;;;;;;8.93;8.13;;;20.50;61.30;;;;;;4950954;29;20448;-69
2022/09/11 03:34:21;;;;;;;7.80;7.10;;;20.60;61.20;;;;;;4939796;29;20479;-69
2022/09/11 03:36:50;;;;;;;7.67;6.87;;;20.60;61.30;;;;;;4930454;29;20438;-69
2022/09/11 03:39:18;;;;;;;6.70;6.20;;;20.60;61.20;;;;;;4937438;29;20907;-69
2022/09/11 03:41:46;;;;;;;8.20;7.40;;;20.60;61.20;;;;;;4928080;29;20447;-69
2022/09/11 03:44:15;;;;;;;8.97;8.13;;;20.60;61.10;;;;;;4940380;29;20590;-68
2022/09/11 03:46:44;;;;;;;10.70;7.37;;;20.50;61.00;;;;;;4934682;29;20531;-68
2022/09/11 03:49:13;;;;;;;7.43;6.73;;;20.50;61.00;;;;;;4943005;29;20484;-69
2022/09/11 03:51:42;;;;;;;7.60;6.83;;;20.60;61.00;;;;;;4945298;29;20532;-69
2022/09/11 03:54:11;;;;;;;6.27;5.60;;;20.50;61.00;;;;;;4949259;28;20486;-69
2022/09/11 03:56:39;;;;;;;7.30;6.63;;;20.60;61.00;;;;;;4920909;29;21007;-69
2022/09/11 03:59:09;;;;;;;6.93;6.33;;;20.50;60.80;;;;;;4933968;29;20539;-69
2022/09/11 04:01:38;;;;;;;7.87;6.63;;;20.50;60.90;;;;;;4949864;29;20440;-68
2022/09/11 04:04:07;;;;;;;7.43;5.90;;;20.50;61.00;;;;;;4929293;29;20480;-69
2022/09/11 04:06:40;;;;;;;7.63;6.83;;;20.50;61.00;;;;;;4933801;29;20991;-69
2022/09/11 04:09:10;;;;;;;7.40;6.70;;;20.50;60.80;;;;;;4931404;29;20922;-69
2022/09/11 04:11:39;;;;;;;6.63;6.03;;;20.50;60.90;;;;;;4926668;29;20546;-69
2022/09/11 04:14:14;;;;;;;6.17;5.67;;;20.50;60.80;;;;;;4926084;29;20480;-69
2022/09/11 04:16:43;;;;;;;5.70;5.20;;;20.50;60.80;;;;;;4934444;29;20506;-69
2022/09/11 04:19:13;;;;;;;5.80;5.27;;;20.50;60.70;;;;;;4939639;29;20500;-69
2022/09/11 04:21:43;;;;;;;6.63;6.03;;;20.50;60.60;;;;;;4949047;29;20458;-69
2022/09/11 04:24:14;;;;;;;6.80;6.10;;;20.50;60.60;;;;;;4933334;28;20566;-69
2022/09/11 04:26:45;;;;;;;6.43;5.83;;;20.50;60.80;;;;;;4931773;29;20452;-69
2022/09/11 04:29:25;;;;;;;5.83;5.43;;;20.50;60.70;;;;;;4933082;29;20493;-69
2022/09/11 04:31:56;;;;;;;5.77;5.17;;;20.50;62.00;;;;;;4950716;29;20484;-69
2022/09/11 04:34:28;;;;;;;6.83;5.70;;;20.50;60.70;;;;;;4920721;29;20534;-69
2022/09/11 04:36:57;;;;;;;6.40;5.90;;;20.50;60.70;;;;;;4927337;29;20472;-69
2022/09/11 04:39:29;;;;;;;6.23;5.67;;;20.50;60.60;;;;;;4923182;29;20476;-68
2022/09/11 04:41:58;;;;;;;7.70;7.00;;;20.50;60.80;;;;;;4937532;29;20443;-69
2022/09/11 04:44:28;;;;;;;5.63;5.23;;;20.50;61.10;;;;;;4945283;28;20483;-69
2022/09/11 04:46:56;;;;;;;10.97;7.73;;;20.50;61.00;;;;;;4917987;29;21030;-69
2022/09/11 04:49:25;;;;;;;6.33;5.73;;;20.50;60.90;;;;;;4944845;28;20574;-69
2022/09/11 04:51:53;;;;;;;6.07;5.47;;;20.50;60.70;;;;;;4933165;29;20888;-68
2022/09/11 04:54:24;;;;;;;5.90;5.30;;;20.50;60.70;;;;;;4927015;29;20482;-69
2022/09/11 04:56:53;;;;;;;5.90;5.40;;;20.50;60.60;;;;;;4925824;29;20499;-69
2022/09/11 04:59:23;;;;;;;5.53;5.13;;;20.50;60.70;;;;;;4930826;29;20483;-69
2022/09/11 05:02:00;;;;;;;6.03;5.50;;;20.50;60.80;;;;;;4937736;29;20534;-69
2022/09/11 05:04:30;;;;;;;5.87;5.30;;;20.50;60.70;;;;;;4937092;29;20858;-69
2022/09/11 05:07:04;;;;;;;7.07;6.50;;;20.50;60.70;;;;;;4936208;29;20475;-69
2022/09/11 05:09:32;;;;;;;8.10;5.67;;;20.50;60.60;;;;;;4937387;29;20478;-69
2022/09/11 05:12:03;;;;;;;6.13;5.63;;;20.50;60.60;;;;;;4924872;29;20452;-69
2022/09/11 05:14:36;;;;;;;6.53;5.57;;;20.50;60.70;;;;;;4926912;29;20682;-69
2022/09/11 05:17:05;;;;;;;5.40;4.90;;;20.50;60.60;;;;;;4921397;29;20455;-69
2022/09/11 05:19:38;;;;;;;6.40;5.80;;;20.50;60.60;;;;;;4928591;28;20534;-69
2022/09/11 05:22:08;;;;;;;6.60;6.00;;;20.50;60.60;;;;;;4931020;29;20893;-69
2022/09/11 05:24:39;;;;;;;8.90;8.00;;;20.50;60.50;;;;;;4947938;28;20475;-68
2022/09/11 05:27:10;;;;;;;9.30;7.40;;;20.50;61.00;;;;;;4932706;29;20530;-69
2022/09/11 05:29:39;;;;;;;7.50;6.73;;;20.40;60.60;;;;;;4930851;29;20483;-69
2022/09/11 05:32:12;;;;;;;7.40;6.20;;;20.50;60.80;;;;;;4933028;29;20794;-69
2022/09/11 05:34:42;;;;;;;5.93;5.40;;;20.40;60.50;;;;;;4932567;29;21027;-68
2022/09/11 05:37:14;;;;;;;6.90;6.30;;;20.50;60.60;;;;;;4912129;29;20453;-69
2022/09/11 05:39:45;;;;;;;6.20;5.70;;;20.40;60.50;;;;;;4948750;28;20479;-69
2022/09/11 05:42:16;;;;;;;8.57;7.20;;;20.40;60.60;;;;;;4927991;29;20439;-69
2022/09/11 05:44:51;;;;;;;7.80;6.80;;;20.40;60.60;;;;;;4931380;29;20487;-69
2022/09/11 05:47:20;;;;;;;6.67;6.07;;;20.40;60.60;;;;;;4932540;29;20785;-69
2022/09/11 05:49:51;;;;;;;12.93;11.70;;;20.40;60.60;;;;;;4930861;29;20538;-69
2022/09/11 05:52:20;;;;;;;8.23;7.47;;;20.40;61.10;;;;;;4936921;29;20451;-68
2022/09/11 05:54:52;;;;;;;8.07;7.30;;;20.40;61.00;;;;;;4920285;29;20483;-69
2022/09/11 05:57:22;;;;;;;9.07;7.80;;;20.40;61.00;;;;;;4915305;29;20546;-69
2022/09/11 05:59:51;;;;;;;7.27;6.57;;;20.40;61.10;;;;;;4947946;28;20553;-68
2022/09/11 06:02:19;;;;;;;12.07;9.73;;;20.40;60.90;;;;;;4948647;29;20451;-68
2022/09/11 06:04:55;;;;;;;8.93;7.63;;;20.40;61.00;;;;;;4938095;28;20471;-69
2022/09/11 06:07:25;;;;;;;8.63;7.93;;;20.40;61.00;;;;;;4929483;29;20448;-68
2022/09/11 06:09:54;;;;;;;9.30;8.40;;;20.40;60.90;;;;;;4929902;29;21030;-69
2022/09/11 06:12:29;;;;;;;9.73;8.83;;;20.40;61.20;;;;;;4948800;28;20443;-69
2022/09/11 06:14:59;;;;;;;8.53;7.73;;;20.40;61.10;;;;;;4944867;29;20472;-68
2022/09/11 06:17:28;;;;;;;10.00;8.90;;;20.40;61.10;;;;;;4908604;29;20431;-69
2022/09/11 06:19:56;;;;;;;9.60;8.70;;;20.40;61.00;;;;;;4941893;29;20485;-69
2022/09/11 06:22:28;;;;;;;9.33;8.43;;;20.40;61.00;;;;;;4929141;29;20526;-68
2022/09/11 06:24:57;;;;;;;10.63;7.27;;;20.40;61.00;;;;;;4935030;29;20472;-69
2022/09/11 06:27:27;;;;;;;7.30;6.60;;;20.40;60.80;;;;;;4924901;29;20857;-68
2022/09/11 06:29:57;;;;;;;8.10;6.57;;;20.30;60.80;;;;;;4942151;28;20456;-69
2022/09/11 06:32:26;;;;;;;10.67;7.57;;;20.40;61.00;;;;;;4930395;29;20440;-68
2022/09/11 06:34:54;;;;;;;13.97;9.43;;;20.40;61.00;;;;;;4945350;28;20879;-69
2022/09/11 06:37:23;;;;;;;11.10;9.30;;;20.40;61.00;;;;;;4935865;29;20859;-69
2022/09/11 06:39:51;;;;;;;7.93;7.13;;;20.40;61.00;;;;;;4928865;29;20991;-68
2022/09/11 06:42:26;;;;;;;12.50;9.00;;;20.40;62.20;;;;;;4930544;29;20813;-69
2022/09/11 06:45:01;;;;;;;8.40;7.53;;;20.40;61.00;;;;;;4935279;29;20467;-69
2022/09/11 06:47:31;;;;;;;10.17;8.27;;;20.30;61.00;;;;;;4942735;29;20448;-69
2022/09/11 06:50:00;;;;;;;8.50;7.70;;;20.40;60.90;;;;;;4949940;28;20478;-68
2022/09/11 06:52:36;;;;;;;9.50;8.50;;;20.30;61.00;;;;;;4934429;29;20436;-68
2022/09/11 06:55:27;;;;;;;12.43;9.80;;;20.40;61.20;;;;;;4947102;28;20474;-68
2022/09/11 06:58:02;;;;;;;8.60;7.80;;;20.30;61.10;;;;;;4944313;29;20951;-68
2022/09/11 07:00:35;;;;;;;8.40;7.60;;;20.30;61.10;;;;;;4936019;29;20828;-68
2022/09/11 07:03:04;;;;;;;9.77;7.73;;;20.40;61.10;;;;;;4933184;29;20476;-69
2022/09/11 07:05:33;;;;;;;9.53;7.60;;;20.30;61.00;;;;;;4936985;29;20459;-68
2022/09/11 07:08:04;;;;;;;8.23;7.20;;;20.30;61.10;;;;;;4945390;29;20448;-69
2022/09/11 07:10:35;;;;;;;10.93;9.80;;;20.30;61.00;;;;;;4940391;29;20558;-68
2022/09/11 07:13:04;;;;;;;8.03;7.20;;;20.30;61.10;;;;;;4948914;28;20558;-68
2022/09/11 07:15:34;;;;;;;7.40;6.60;;;20.30;61.00;;;;;;4944231;29;20475;-68
2022/09/11 07:18:04;;;;;;;11.33;9.80;;;20.30;61.00;;;;;;4921930;29;20456;-68
2022/09/11 07:20:32;;;;;;;10.37;7.90;;;20.30;61.20;;;;;;4933557;29;20531;-68
2022/09/11 07:23:01;;;;;;;7.93;7.23;;;20.30;61.10;;;;;;4933100;29;20467;-68
2022/09/11 07:25:32;;;;;;;9.30;8.40;;;20.30;61.00;;;;;;4945349;29;20464;-68
2022/09/11 07:28:00;;;;;;;9.30;7.97;;;20.30;61.10;;;;;;4932211;29;20446;-68
2022/09/11 07:30:28;;;;;;;11.97;7.77;;;20.30;61.10;;;;;;4924101;29;20897;-68
2022/09/11 07:32:59;;;;;;;8.83;7.60;;;20.30;61.20;;;;;;4930673;29;20558;-68
2022/09/11 07:35:27;;;;;;;7.60;6.90;;;20.30;61.40;;;;;;4941331;29;20495;-68
2022/09/11 07:37:58;;;;;;;8.50;7.70;;;20.30;61.50;;;;;;4948022;29;20449;-68
2022/09/11 07:40:30;;;;;;;9.30;7.10;;;20.30;61.30;;;;;;4927396;29;20467;-68
2022/09/11 07:43:00;;;;;;;9.43;8.40;;;20.30;61.50;;;;;;4947880;28;20479;-68
2022/09/11 07:45:29;;;;;;;13.23;11.60;;;20.30;61.40;;;;;;4927406;29;20451;-68
2022/09/11 07:48:02;;;;;;;8.00;7.30;;;20.30;61.80;;;;;;4920100;29;20452;-68
2022/09/11 07:50:32;;;;;;;8.53;7.73;;;20.30;61.40;;;;;;4936272;29;20962;-68
2022/09/11 07:53:00;;;;;;;7.40;6.70;;;20.30;61.40;;;;;;4942122;29;20463;-68
2022/09/11 07:55:29;;;;;;;8.70;7.27;;;20.30;61.40;;;;;;4941767;29;20475;-68
2022/09/11 07:57:58;;;;;;;8.40;7.60;;;20.30;61.30;;;;;;4934516;29;20447;-68
2022/09/11 08:00:26;;;;;;;9.07;8.17;;;20.30;61.30;;;;;;4935061;29;20816;-68
2022/09/11 08:03:05;;;;;;;7.70;7.00;;;20.30;61.20;;;;;;4935531;29;20801;-69
2022/09/11 08:05:36;;;;;;;7.90;7.10;;;20.30;61.10;;;;;;4946775;29;20463;-68
2022/09/11 08:08:06;;;;;;;8.17;7.47;;;20.30;61.20;;;;;;4926983;29;20447;-68
2022/09/11 08:10:39;;;;;;;7.97;7.27;;;20.30;61.20;;;;;;4929751;29;20453;-69
2022/09/11 08:13:08;;;;;;;7.90;7.10;;;20.30;61.30;;;;;;4952077;28;21003;-69
2022/09/11 08:15:37;;;;;;;8.50;7.70;;;20.30;61.30;;;;;;4941000;29;20840;-68
2022/09/11 08:18:09;;;;;;;9.87;8.80;;;20.30;61.20;;;;;;4932990;29;20440;-68
2022/09/11 08:20:37;;;;;;;7.33;6.63;;;20.30;61.50;;;;;;4946964;29;20879;-68
2022/09/11 08:23:06;;;;;;;8.80;6.40;;;20.30;61.30;;;;;;4932568;29;20570;-69
2022/09/11 08:25:35;;;;;;;8.30;7.50;;;20.30;61.40;;;;;;4922784;29;20520;-68
2022/09/11 08:28:05;;;;;;;8.13;7.33;;;20.30;61.60;;;;;;4927226;29;20449;-71
2022/09/11 08:30:37;;;;;;;7.90;7.10;;;20.30;61.60;;;;;;4923263;29;20818;-71
2022/09/11 08:33:07;;;;;;;8.80;8.00;;;20.30;61.50;;;;;;4923023;29;20491;-72
2022/09/11 08:35:38;;;;;;;6.93;6.30;;;20.30;61.70;;;;;;4945501;29;20490;-72
2022/09/11 08:38:06;;;;;;;10.17;7.60;;;20.30;61.50;;;;;;4951007;28;20876;-71
2022/09/11 08:40:38;;;;;;;8.57;7.67;;;20.20;61.70;;;;;;4924922;29;20460;-71
2022/09/11 08:43:16;;;;;;;7.80;6.30;;;20.20;61.90;;;;;;4929969;29;20871;-72
2022/09/11 08:45:45;;;;;;;7.60;6.90;;;20.20;61.80;;;;;;4932568;29;20447;-72
2022/09/11 08:48:14;;;;;;;9.20;7.47;;;20.20;61.70;;;;;;4933716;29;20428;-72
2022/09/11 08:50:44;;;;;;;8.20;6.50;;;20.20;61.60;;;;;;4950173;29;20454;-71
2022/09/11 08:53:19;;;;;;;8.30;7.50;;;20.20;62.00;;;;;;4929949;29;20467;-72
2022/09/11 08:55:50;;;;;;;8.30;7.27;;;20.20;62.00;;;;;;4927235;29;20529;-72
2022/09/11 08:58:30;;;;;;;7.47;6.77;;;20.20;61.80;;;;;;4933680;29;20865;-71
2022/09/11 09:01:07;;;;;;;7.93;7.20;;;20.20;61.80;;;;;;4932674;29;20506;-71
2022/09/11 09:04:00;;;;;;;8.70;7.90;;;20.20;62.20;;;;;;4926306;29;21061;-71
2022/09/11 09:06:53;;;;;;;8.43;7.57;;;20.20;62.10;;;;;;4932770;29;20466;-72
2022/09/11 09:09:29;;;;;;;9.17;7.93;;;20.20;62.50;;;;;;4948444;28;20888;-72
2022/09/11 09:12:14;;;;;;;9.33;8.17;;;20.20;62.40;;;;;;4924357;29;20463;-72
2022/09/11 09:15:02;;;;;;;6.80;6.23;;;20.20;62.50;;;;;;4915825;29;20514;-71
2022/09/11 09:17:37;;;;;;;7.10;6.40;;;20.20;61.80;;;;;;4953573;28;20459;-71
2022/09/11 09:20:12;;;;;;;6.77;6.17;;;20.20;61.70;;;;;;4929320;29;20483;-71
2022/09/11 09:22:48;;;;;;;6.77;6.07;;;20.20;61.50;;;;;;4944755;29;20498;-72
2022/09/11 09:25:21;;;;;;;10.70;9.60;;;20.20;61.50;;;;;;4923360;29;20523;-71
2022/09/11 09:27:59;;;;;;;8.80;7.90;;;20.30;64.20;;;;;;4919955;28;20454;-72
2022/09/11 09:30:37;;;;;;;9.53;8.60;;;20.20;63.20;;;;;;4940310;29;20831;-72
2022/09/11 09:33:20;;;;;;;9.30;7.70;;;20.30;63.10;;;;;;4937223;29;20447;-72
2022/09/11 09:35:49;;;;;;;8.90;7.30;;;20.20;62.80;;;;;;4939902;29;20530;-72
2022/09/11 09:38:26;;;;;;;8.23;7.40;;;20.30;62.90;;;;;;4939226;29;20456;-71
2022/09/11 09:41:08;;;;;;;7.90;7.00;;;20.30;62.70;;;;;;4954423;28;20451;-72
2022/09/11 09:43:50;;;;;;;7.73;6.70;;;20.20;62.40;;;;;;4933362;28;20468;-71
2022/09/11 09:46:27;;;;;;;7.70;6.90;;;20.20;62.50;;;;;;4946718;29;20435;-68
2022/09/11 09:48:55;;;;;;;6.43;5.93;;;20.30;62.30;;;;;;4940855;28;20489;-68
2022/09/11 09:51:24;;;;;;;6.63;6.03;;;20.30;62.30;;;;;;4947870;29;20976;-68
2022/09/11 09:53:56;;;;;;;5.73;5.23;;;20.30;62.10;;;;;;4931518;29;20490;-68
2022/09/11 09:56:25;;;;;;;7.17;6.47;;;20.30;62.00;;;;;;4924066;29;20482;-68
2022/09/11 09:58:59;;;;;;;6.23;5.63;;;20.30;62.00;;;;;;4932418;29;20459;-68
2022/09/11 10:01:48;;;;;;;6.33;5.73;;;20.30;62.00;;;;;;4941132;29;20442;-68
2022/09/11 10:04:20;;;;;;;6.70;6.10;;;20.30;61.90;;;;;;4924331;29;20996;-68
2022/09/11 10:06:51;;;;;;;6.43;5.83;;;20.30;62.10;;;;;;4918541;29;20436;-68
2022/09/11 10:09:26;;;;;;;6.47;5.93;;;20.30;61.80;;;;;;4952700;28;20475;-68
2022/09/11 10:12:01;;;;;;;6.60;6.00;;;20.30;61.80;;;;;;4932773;29;20455;-69
2022/09/11 10:14:32;;;;;;;5.40;4.90;;;20.30;61.70;;;;;;4947194;28;20463;-69
2022/09/11 10:17:24;;;;;;;5.00;4.50;;;20.30;61.60;;;;;;4938683;29;20495;-68
2022/09/11 10:19:55;;;;;;;5.93;5.30;;;20.30;61.50;;;;;;4934626;29;20467;-68
2022/09/11 10:22:27;;;;;;;5.00;4.50;;;20.30;61.50;;;;;;4940075;29;20455;-69
2022/09/11 10:25:13;;;;;;;5.80;5.30;;;20.30;61.40;;;;;;4932211;29;20476;-71
2022/09/11 10:27:48;;;;;;;5.77;5.27;;;20.30;61.40;;;;;;4931176;29;21344;-71
2022/09/11 10:30:32;;;;;;;5.60;5.10;;;20.30;61.80;;;;;;4942600;29;21009;-69
2022/09/11 10:33:05;;;;;;;6.37;5.77;;;20.30;61.40;;;;;;4937293;29;20455;-69
2022/09/11 10:35:36;;;;;;;5.10;4.70;;;20.30;61.30;;;;;;4938608;29;20498;-69
2022/09/11 10:38:25;;;;;;;5.57;4.63;;;20.30;62.60;;;;;;4932016;29;20463;-69
2022/09/11 10:41:02;;;;;;;5.57;5.07;;;20.30;61.20;;;;;;4945439;29;20536;-71
2022/09/11 10:43:42;;;;;;;5.17;4.77;;;20.30;61.30;;;;;;4942054;28;20470;-71
2022/09/11 10:46:36;;;;;;;5.30;4.80;;;20.30;61.10;;;;;;4946355;29;20539;-72
2022/09/11 10:49:17;;;;;;;4.97;4.57;;;20.30;61.10;;;;;;4952642;28;20471;-69
2022/09/11 10:52:00;;;;;;;5.50;5.00;;;20.30;61.30;;;;;;4952036;29;20428;-68
2022/09/11 10:54:43;;;;;;;5.20;4.70;;;20.30;61.20;;;;;;4933078;29;20859;-69
2022/09/11 10:57:22;;;;;;;5.97;5.40;;;20.30;61.00;;;;;;4946539;29;20550;-69
2022/09/11 10:59:58;;;;;;;5.07;4.67;;;20.30;61.00;;;;;;4935559;29;20937;-68
2022/09/11 11:02:30;;;;;;;5.13;4.73;;;20.30;61.10;;;;;;4954261;29;20526;-68
2022/09/11 11:05:04;;;;;;;5.03;4.63;;;20.30;61.10;;;;;;4945435;28;20484;-68
2022/09/11 11:07:46;;;;;;;5.63;5.13;;;20.30;61.00;;;;;;4921546;29;20446;-68
2022/09/11 11:10:32;;;;;;;5.00;4.50;;;20.30;60.90;;;;;;4946847;29;20553;-69
2022/09/11 11:13:14;;;;;;;4.83;4.43;;;20.30;60.90;;;;;;4933647;29;20550;-69
2022/09/11 11:15:56;;;;;;;5.33;4.90;;;20.30;60.90;;;;;;4931965;29;20551;-68
2022/09/11 11:18:38;;;;;;;4.50;4.20;;;20.30;60.90;;;;;;4940000;28;20554;-71
2022/09/11 11:21:17;;;;;;;4.50;4.10;;;20.30;60.80;;;;;;4935017;29;20475;-71
2022/09/11 11:23:55;;;;;;;4.83;4.43;;;20.30;60.80;;;;;;4945810;28;20868;-71
2022/09/11 11:26:36;;;;;;;4.73;4.07;;;20.30;60.80;;;;;;4926865;29;20471;-71
2022/09/11 11:29:41;;;;;;;4.63;4.23;;;20.30;60.80;;;;;;4925137;29;20471;-71
2022/09/11 11:32:48;;;;;;;4.13;3.73;;;20.30;60.80;;;;;;4944170;29;20438;-71
2022/09/11 11:35:22;;;;;;;4.13;3.83;;;20.30;60.70;;;;;;4894947;29;20475;-71
2022/09/11 11:37:55;;;;;;;4.47;4.07;;;20.30;60.80;;;;;;4927975;29;20550;-71
2022/09/11 11:40:28;;;;;;;4.93;4.47;;;20.30;60.90;;;;;;4950621;29;20754;-68
2022/09/11 11:43:01;;;;;;;4.60;4.20;;;20.30;60.80;;;;;;4926688;29;20527;-68
2022/09/11 11:45:36;;;;;;;5.27;4.77;;;20.30;60.90;;;;;;4934244;29;20811;-68
2022/09/11 11:48:09;;;;;;;3.93;3.63;;;20.30;60.90;;;;;;4943762;29;20447;-68
2022/09/11 11:50:42;;;;;;;4.70;4.30;;;20.30;60.90;;;;;;4928145;29;20987;-68
2022/09/11 11:53:19;;;;;;;4.47;4.10;;;20.30;60.80;;;;;;4946141;28;20486;-69
2022/09/11 11:55:59;;;;;;;5.20;4.80;;;20.30;60.80;;;;;;4926203;29;20503;-68
2022/09/11 11:58:40;;;;;;;3.70;3.40;;;20.30;60.80;;;;;;4931348;29;20471;-68
2022/09/11 12:01:16;;;;;;;4.33;3.93;;;20.30;60.70;;;;;;4950245;29;20498;-68
2022/09/11 12:03:50;;;;;;;4.40;4.10;;;20.30;60.80;;;;;;4945300;28;20472;-68
2022/09/11 12:06:19;;;;;;;4.70;4.30;;;20.30;60.70;;;;;;4949917;29;20455;-68
2022/09/11 12:08:48;;;;;;;4.93;4.27;;;20.30;60.70;;;;;;4950673;29;20437;-68
2022/09/11 12:11:25;;;;;;;3.97;3.67;;;20.30;60.60;;;;;;4948624;29;20456;-68
2022/09/11 12:13:57;;;;;;;4.97;4.57;;;20.30;60.50;;;;;;4932234;29;20534;-68
2022/09/11 12:16:30;;;;;;;4.03;3.63;;;20.30;60.60;;;;;;4911691;29;20523;-68
2022/09/11 12:19:06;;;;;;;4.40;4.00;;;20.30;60.50;;;;;;4930364;29;20540;-68
2022/09/11 12:21:41;;;;;;;4.50;4.10;;;20.30;60.50;;;;;;4949119;29;20447;-68
2022/09/11 12:24:21;;;;;;;4.40;4.00;;;20.30;60.60;;;;;;4933838;29;20479;-68
2022/09/11 12:27:49;;;;;;;4.33;3.93;;;20.30;60.50;;;;;;4933787;29;20800;-68
2022/09/11 12:30:24;;;;;;;4.07;3.77;;;20.30;60.60;;;;;;4946937;28;20460;-68
2022/09/11 12:32:55;;;;;;;5.53;3.93;;;20.30;60.70;;;;;;4950599;29;20452;-68
2022/09/11 12:35:28;;;;;;;4.00;3.70;;;20.30;60.60;;;;;;4949364;29;20590;-68
2022/09/11 12:38:04;;;;;;;4.10;3.80;;;20.30;60.50;;;;;;4944410;29;20559;-68
2022/09/11 12:40:38;;;;;;;4.03;3.73;;;20.30;60.50;;;;;;4932689;29;20864;-68
2022/09/11 12:43:31;;;;;;;6.40;3.87;;;20.30;60.50;;;;;;4947731;29;20455;-68
2022/09/11 12:46:00;;;;;;;4.23;3.93;;;20.30;60.60;;;;;;4926251;29;20495;-71
2022/09/11 12:48:37;;;;;;;3.53;3.23;;;20.30;60.50;;;;;;4932728;29;20475;-71
2022/09/11 12:51:17;;;;;;;3.70;3.40;;;20.30;60.60;;;;;;4914861;29;20809;-68
2022/09/11 12:53:49;;;;;;;4.23;3.90;;;20.30;60.60;;;;;;4936092;29;20535;-68
2022/09/11 12:56:20;;;;;;;4.13;3.83;;;20.30;60.60;;;;;;4926850;29;20461;-68
2022/09/11 12:58:55;;;;;;;3.60;3.30;;;20.40;60.60;;;;;;4949251;28;20541;-68
2022/09/11 13:01:27;;;;;;;3.90;3.60;;;20.30;60.50;;;;;;4941390;29;20443;-68
2022/09/11 13:04:02;;;;;;;3.83;3.53;;;20.30;60.50;;;;;;4949795;28;20852;-68
2022/09/11 13:06:40;;;;;;;4.10;3.80;;;20.40;60.50;;;;;;4946333;29;20812;-68
2022/09/11 13:09:19;;;;;;;3.50;3.20;;;20.30;60.40;;;;;;4937504;29;20843;-68
2022/09/11 13:11:49;;;;;;;3.27;2.93;;;20.40;60.60;;;;;;4946536;29;20439;-68
2022/09/11 13:14:45;;;;;;;4.10;3.80;;;20.30;61.70;;;;;;4932652;29;20470;-68
2022/09/11 13:17:17;;;;;;;4.03;3.63;;;20.30;60.40;;;;;;4933613;29;21046;-68
2022/09/11 13:19:47;;;;;;;3.87;3.57;;;20.30;60.50;;;;;;4928393;29;20480;-68